Time;durP1;ratioP1;P1;durP2;ratioP2;P2;SDS_P1;SDS_P2;PMS_P1;PMS_P2;Temp;Humidity;BMP_temperature;BMP_pressure;BME280_temperature;BME280_humidity;BME280_pressure;Samples;Min_cycle;Max_cycle;Signal;HPM_P1;HPM_P2
2023/03/13 00:01:37;;;;;;;33.58;6.32;;;10.10;99.90;;;;;;4956381;29;20031;-87
2023/03/13 00:04:06;;;;;;;40.05;6.10;;;10.10;99.90;;;;;;4957420;29;20027;-87
2023/03/13 00:06:37;;;;;;;35.83;5.82;;;9.50;99.90;;;;;;4957212;29;20023;-89
2023/03/13 00:09:05;;;;;;;23.48;5.20;;;9.50;99.90;;;;;;4956649;29;20038;-87
2023/03/13 00:11:32;;;;;;;27.17;5.97;;;10.00;99.90;;;;;;4956979;29;20114;-87
2023/03/13 00:14:05;;;;;;;25.67;5.55;;;10.20;99.90;;;;;;4957368;29;20047;-87
2023/03/13 00:16:33;;;;;;;30.17;5.32;;;10.30;99.90;;;;;;4956407;29;20534;-88
2023/03/13 00:18:59;;;;;;;36.38;5.85;;;9.80;99.90;;;;;;4957431;29;20433;-88
2023/03/13 00:21:27;;;;;;;31.23;5.65;;;10.00;99.90;;;;;;5007218;23;20074;-87
2023/03/13 00:26:27;;;;;;;22.83;5.72;;;9.40;99.90;;;;;;4998759;23;20060;-87
2023/03/13 00:29:02;;;;;;;39.53;6.45;;;10.40;99.90;;;;;;4967365;23;20056;-88
2023/03/13 00:31:31;;;;;;;29.67;7.07;;;10.20;99.90;;;;;;4976235;28;20030;-90
2023/03/13 00:34:01;;;;;;;33.17;6.82;;;10.00;99.90;;;;;;4976203;28;20034;-90
2023/03/13 00:36:33;;;;;;;34.03;7.22;;;9.40;99.90;;;;;;4975382;28;20472;-89
2023/03/13 00:39:04;;;;;;;30.77;8.82;;;10.10;99.90;;;;;;4976073;28;20043;-90
2023/03/13 00:41:33;;;;;;;26.85;7.07;;;10.20;99.90;;;;;;4975681;28;20022;-90
2023/03/13 00:46:28;;;;;;;36.58;8.68;;;9.50;99.90;;;;;;4995435;23;20479;-90
2023/03/13 00:48:54;;;;;;;28.48;9.02;;;10.50;99.90;;;;;;4995022;28;20023;-87
2023/03/13 00:51:27;;;;;;;32.15;7.97;;;10.30;99.90;;;;;;4994394;28;20129;-89
2023/03/13 00:53:59;;;;;;;28.30;8.32;;;9.50;99.90;;;;;;4994548;28;20092;-90
2023/03/13 00:56:25;;;;;;;33.60;8.00;;;11.00;99.90;;;;;;4995086;28;20033;-89
2023/03/13 00:58:53;;;;;;;29.17;8.98;;;10.30;99.90;;;;;;4994309;28;20114;-89
2023/03/13 01:01:28;;;;;;;29.45;8.82;;;9.50;99.90;;;;;;4995110;28;20098;-89
2023/03/13 01:03:56;;;;;;;28.58;9.25;;;10.30;99.90;;;;;;4994242;28;20022;-89
2023/03/13 01:06:24;;;;;;;23.13;8.25;;;10.10;99.90;;;;;;4994547;28;20026;-89
2023/03/13 01:08:57;;;;;;;26.10;9.10;;;10.20;99.90;;;;;;4994727;28;20042;-90
2023/03/13 01:11:29;;;;;;;35.38;10.23;;;10.30;99.90;;;;;;4994206;28;20085;-89
2023/03/13 01:14:02;;;;;;;25.77;9.00;;;10.40;99.90;;;;;;4994517;28;20030;-88
2023/03/13 01:16:32;;;;;;;26.48;10.48;;;10.30;99.90;;;;;;4994508;28;20027;-89
2023/03/13 01:19:03;;;;;;;30.40;10.93;;;9.00;99.90;;;;;;4993830;28;20470;-89
2023/03/13 01:21:29;;;;;;;28.73;11.20;;;10.10;99.90;;;;;;4994493;28;20068;-90
2023/03/13 01:23:58;;;;;;;26.38;10.95;;;9.70;99.90;;;;;;4994529;28;20033;-89
2023/03/13 01:26:27;;;;;;;20.25;11.55;;;10.50;99.90;;;;;;4993759;28;20065;-89
2023/03/13 01:28:55;;;;;;;21.25;11.73;;;11.10;99.90;;;;;;4994610;28;20026;-89
2023/03/13 01:31:29;;;;;;;24.48;10.90;;;9.70;99.90;;;;;;4994164;28;20525;-89
2023/03/13 01:34:03;;;;;;;23.85;11.75;;;10.40;99.90;;;;;;4993780;28;20042;-89
2023/03/13 01:36:29;;;;;;;21.60;12.45;;;10.30;99.90;;;;;;4994272;28;20018;-89
2023/03/13 01:38:59;;;;;;;24.23;13.40;;;11.00;99.90;;;;;;4993816;28;20026;-89
2023/03/13 01:41:29;;;;;;;30.15;13.48;;;9.80;99.90;;;;;;4993947;28;20041;-89
2023/03/13 01:43:55;;;;;;;22.77;13.25;;;10.50;99.90;;;;;;4994093;28;20061;-89
2023/03/13 01:46:29;;;;;;;27.35;14.73;;;9.00;99.90;;;;;;4993446;28;20050;-90
2023/03/13 01:49:24;;;;;;;28.52;15.18;;;10.80;99.90;;;;;;4994343;28;20438;-89
2023/03/13 01:51:58;;;;;;;31.73;15.50;;;9.70;99.90;;;;;;4993879;28;20467;-89
2023/03/13 01:54:26;;;;;;;31.33;16.42;;;10.70;99.90;;;;;;4994816;28;20573;-89
2023/03/13 01:57:25;;;;;;;25.80;15.60;;;10.70;99.90;;;;;;5006362;28;20023;-89
2023/03/13 02:00:25;;;;;;;25.23;16.25;;;9.60;99.90;;;;;;5003908;28;20046;-90
2023/03/13 02:03:00;;;;;;;28.42;16.75;;;10.00;99.90;;;;;;4995351;28;20033;-90
2023/03/13 02:05:27;;;;;;;28.73;17.77;;;10.70;99.90;;;;;;4993999;28;20018;-89
2023/03/13 02:08:30;;;;;;;26.13;16.58;;;9.70;99.90;;;;;;4993190;28;20026;-89
2023/03/13 02:11:32;;;;;;;30.40;16.73;;;10.10;99.90;;;;;;4979111;28;20026;-89
2023/03/13 02:13:59;;;;;;;25.60;16.52;;;10.00;99.90;;;;;;4977851;28;20515;-89
2023/03/13 02:16:28;;;;;;;25.00;16.95;;;10.20;99.90;;;;;;4993433;28;20034;-89
2023/03/13 02:19:05;;;;;;;26.52;15.35;;;10.70;99.90;;;;;;4988760;23;20146;-89
2023/03/13 02:22:01;;;;;;;25.92;16.13;;;9.80;99.90;;;;;;4973656;28;20031;-89
2023/03/13 02:24:33;;;;;;;26.33;16.40;;;11.00;99.90;;;;;;4974011;28;20482;-89
2023/03/13 02:26:59;;;;;;;29.23;15.65;;;10.80;99.90;;;;;;4974307;28;20027;-89
2023/03/13 02:29:33;;;;;;;27.67;14.93;;;11.10;99.90;;;;;;4973622;28;20034;-89
2023/03/13 02:32:02;;;;;;;29.98;14.43;;;10.70;99.90;;;;;;4974332;28;20022;-90
2023/03/13 02:34:32;;;;;;;27.52;13.85;;;10.50;99.90;;;;;;4974110;28;20031;-90
2023/03/13 02:37:01;;;;;;;18.58;11.60;;;10.70;99.90;;;;;;4978974;23;20117;-90
2023/03/13 02:42:00;;;;;;;19.38;11.85;;;10.60;99.90;;;;;;4984596;23;20137;-89
2023/03/13 02:47:02;;;;;;;21.10;10.55;;;10.60;99.90;;;;;;4998364;23;20428;-87
2023/03/13 02:49:29;;;;;;;23.02;9.65;;;10.80;99.90;;;;;;5008237;23;20117;-89
2023/03/13 02:55:03;;;;;;;20.73;9.52;;;12.10;99.90;;;;;;4965466;23;20070;-88
2023/03/13 02:57:30;;;;;;;22.33;9.13;;;10.90;99.90;;;;;;4963484;23;20047;-88
2023/03/13 02:59:58;;;;;;;14.75;9.82;;;11.60;99.90;;;;;;4958311;29;20074;-88
2023/03/13 03:02:24;;;;;;;22.25;9.48;;;10.80;99.90;;;;;;4957871;29;20034;-88
2023/03/13 03:04:59;;;;;;;16.80;10.45;;;10.80;99.90;;;;;;4963922;23;20055;-88
2023/03/13 03:07:28;;;;;;;13.50;9.20;;;11.70;99.90;;;;;;4964265;23;20063;-88
2023/03/13 03:09:57;;;;;;;13.25;8.60;;;11.90;99.90;;;;;;4958407;29;20476;-89
2023/03/13 03:12:23;;;;;;;17.10;8.52;;;11.10;99.90;;;;;;4957036;29;20034;-89
2023/03/13 03:14:49;;;;;;;12.95;9.20;;;10.90;99.90;;;;;;4958160;29;20039;-88
2023/03/13 03:17:16;;;;;;;14.45;8.73;;;10.90;99.90;;;;;;4959196;28;20046;-89
2023/03/13 03:19:42;;;;;;;17.08;7.97;;;11.60;99.90;;;;;;4976926;28;20506;-89
2023/03/13 03:22:14;;;;;;;16.92;7.85;;;11.70;99.90;;;;;;4977457;28;20034;-89
2023/03/13 03:24:39;;;;;;;14.20;7.55;;;11.10;99.90;;;;;;4976417;28;20027;-88
2023/03/13 03:27:17;;;;;;;13.98;7.22;;;11.00;99.90;;;;;;4977319;28;20381;-89
2023/03/13 03:29:42;;;;;;;16.45;7.07;;;11.70;99.90;;;;;;4976960;28;20434;-89
2023/03/13 03:32:11;;;;;;;11.45;7.07;;;11.10;99.90;;;;;;4992384;23;20050;-89
2023/03/13 03:37:08;;;;;;;12.50;7.05;;;11.10;99.90;;;;;;4976513;23;20078;-89
2023/03/13 03:39:35;;;;;;;11.90;6.25;;;11.10;99.90;;;;;;4963196;23;20051;-88
2023/03/13 03:42:08;;;;;;;12.35;7.03;;;11.80;99.90;;;;;;4957413;29;20027;-88
2023/03/13 03:44:37;;;;;;;13.77;6.80;;;11.10;99.90;;;;;;4963544;23;20130;-88
2023/03/13 03:47:12;;;;;;;12.35;7.10;;;12.10;99.90;;;;;;4956980;29;20019;-88
2023/03/13 03:52:13;;;;;;;20.88;7.10;;;11.20;99.90;;;;;;4997633;23;20058;-88
2023/03/13 03:57:15;;;;;;;13.35;7.85;;;11.30;99.90;;;;;;5019612;23;20740;-87
2023/03/13 04:02:14;;;;;;;10.73;6.13;;;11.30;99.90;;;;;;5001803;23;20789;-88
2023/03/13 04:04:44;;;;;;;16.85;7.38;;;11.20;99.90;;;;;;4988387;23;20166;-88
2023/03/13 04:07:13;;;;;;;14.25;7.35;;;12.30;99.90;;;;;;4975618;28;20023;-88
2023/03/13 04:09:41;;;;;;;13.20;7.35;;;12.20;99.90;;;;;;4976173;28;20037;-88
2023/03/13 04:12:39;;;;;;;14.55;7.65;;;12.10;99.90;;;;;;4975988;28;20468;-88
2023/03/13 04:15:08;;;;;;;13.25;7.88;;;11.60;99.90;;;;;;4975529;28;20030;-88
2023/03/13 04:17:39;;;;;;;10.30;6.97;;;11.30;99.90;;;;;;4975923;28;20031;-89
2023/03/13 04:20:10;;;;;;;13.68;7.07;;;11.80;99.90;;;;;;4976111;28;20110;-89
2023/03/13 04:22:42;;;;;;;13.70;8.07;;;11.30;99.90;;;;;;4975289;28;20023;-88
2023/03/13 04:25:08;;;;;;;11.65;6.57;;;12.20;99.90;;;;;;4976140;28;20035;-88
2023/03/13 04:27:36;;;;;;;9.85;6.35;;;11.40;99.90;;;;;;4975446;28;20069;-88
2023/03/13 04:30:07;;;;;;;10.70;7.00;;;12.10;99.90;;;;;;4976020;28;20031;-88
2023/03/13 04:32:32;;;;;;;;;;;11.40;99.90;;;;;;4976191;28;20035;-89
2023/03/13 04:35:00;;;;;;;12.38;6.50;;;12.50;99.90;;;;;;4975559;28;19906;-88
2023/03/13 04:37:26;;;;;;;7.13;6.28;;;11.90;99.90;;;;;;4981470;23;20039;-88
2023/03/13 04:42:26;;;;;;;9.77;6.32;;;11.50;99.90;;;;;;4976863;23;20133;-88
2023/03/13 04:47:25;;;;;;;15.18;6.22;;;11.50;99.90;;;;;;4977668;23;20069;-88
2023/03/13 04:49:54;;;;;;;10.70;5.60;;;12.80;99.90;;;;;;4961759;23;20047;-88
2023/03/13 04:52:25;;;;;;;16.38;7.30;;;12.40;99.90;;;;;;4962430;23;20115;-88
2023/03/13 04:54:57;;;;;;;10.05;5.63;;;12.60;99.90;;;;;;4956095;29;20031;-88
2023/03/13 04:57:26;;;;;;;9.77;4.88;;;12.00;99.90;;;;;;4954858;29;20102;-89
2023/03/13 04:59:57;;;;;;;13.75;5.15;;;12.00;99.90;;;;;;4962535;23;20059;-89
2023/03/13 05:02:23;;;;;;;7.57;4.97;;;11.90;99.90;;;;;;4955534;29;20024;-88
2023/03/13 05:04:52;;;;;;;10.73;5.47;;;12.70;99.90;;;;;;4955206;29;20054;-89
2023/03/13 05:07:23;;;;;;;12.00;5.65;;;11.70;99.90;;;;;;4954784;29;20035;-89
2023/03/13 05:09:52;;;;;;;16.83;5.47;;;12.10;99.90;;;;;;4955023;29;20038;-89
2023/03/13 05:12:20;;;;;;;12.32;5.30;;;11.80;99.90;;;;;;4955793;29;20028;-89
2023/03/13 05:14:48;;;;;;;10.88;4.60;;;11.80;99.90;;;;;;4955495;28;20031;-89
2023/03/13 05:17:13;;;;;;;16.17;5.93;;;11.80;99.90;;;;;;4955276;29;20027;-89
2023/03/13 05:19:45;;;;;;;11.57;4.40;;;12.60;99.90;;;;;;4955797;29;20050;-89
2023/03/13 05:22:13;;;;;;;9.43;4.53;;;12.60;99.90;;;;;;4955731;29;20031;-89
2023/03/13 05:24:44;;;;;;;14.77;4.57;;;12.60;99.90;;;;;;4954786;29;20023;-89
2023/03/13 05:27:15;;;;;;;12.80;4.75;;;12.70;99.90;;;;;;4955834;29;20386;-89
2023/03/13 05:30:13;;;;;;;10.85;4.75;;;12.60;99.90;;;;;;4955218;29;20063;-90
2023/03/13 05:32:45;;;;;;;13.23;4.03;;;11.90;99.90;;;;;;4984748;23;20066;-88
2023/03/13 05:35:10;;;;;;;10.30;4.03;;;13.10;99.90;;;;;;4974954;23;20043;-88
2023/03/13 05:37:40;;;;;;;14.32;4.38;;;11.90;99.90;;;;;;4979296;23;20146;-88
2023/03/13 05:42:41;;;;;;;8.00;4.20;;;12.00;99.90;;;;;;4973745;23;20074;-88
2023/03/13 05:45:08;;;;;;;13.93;4.95;;;12.70;99.90;;;;;;4979561;23;20546;-88
2023/03/13 05:47:34;;;;;;;7.82;4.28;;;12.00;99.90;;;;;;4955245;29;20047;-88
2023/03/13 05:50:31;;;;;;;9.55;4.18;;;13.00;99.90;;;;;;4955308;29;20031;-88
2023/03/13 05:53:03;;;;;;;9.02;3.95;;;11.90;99.90;;;;;;4954389;29;20130;-87
2023/03/13 05:58:33;;;;;;;12.35;4.53;;;11.90;99.90;;;;;;4951941;29;20027;-87
2023/03/13 06:01:07;;;;;;;5.85;3.55;;;11.20;99.90;;;;;;4953837;29;20476;-87
2023/03/13 06:03:36;;;;;;;11.15;4.07;;;12.00;99.90;;;;;;4953558;29;20026;-88
2023/03/13 06:06:07;;;;;;;8.95;4.18;;;11.50;99.90;;;;;;4953638;29;20027;-87
2023/03/13 06:08:35;;;;;;;13.35;4.47;;;12.00;99.90;;;;;;4945049;29;20034;-87
2023/03/13 06:11:06;;;;;;;14.85;4.57;;;11.90;99.90;;;;;;4945146;29;20074;-87
2023/03/13 06:13:38;;;;;;;7.95;3.53;;;12.20;99.90;;;;;;4943248;29;20043;-87
2023/03/13 06:16:41;;;;;;;10.43;4.90;;;12.60;99.90;;;;;;4944614;29;20075;-88
2023/03/13 06:19:26;;;;;;;;;;;;;;;;;;;;;
2023/03/13 06:22:45;;;;;;;13.23;4.45;;;12.10;99.90;;;;;;4878276;29;20384;-88
2023/03/13 06:25:51;;;;;;;13.48;4.60;;;11.90;99.90;;;;;;4907124;29;20032;-88
2023/03/13 06:28:47;;;;;;;14.93;4.20;;;12.00;99.90;;;;;;4937504;23;20059;-87
2023/03/13 06:31:17;;;;;;;12.45;4.43;;;11.30;99.90;;;;;;4956368;28;20962;-88
2023/03/13 06:34:18;;;;;;;11.30;3.95;;;12.80;99.90;;;;;;4960456;28;20042;-87
2023/03/13 06:36:49;;;;;;;8.13;4.00;;;12.00;99.90;;;;;;4945326;28;20038;-87
2023/03/13 06:39:17;;;;;;;;;;;13.50;99.90;;;;;;4955705;28;20027;-88
2023/03/13 06:41:49;;;;;;;;;;;11.90;99.90;;;;;;4956648;28;19915;-87
2023/03/13 06:44:20;;;;;;;;;;;11.60;99.90;;;;;;4973637;28;19956;-88
2023/03/13 06:46:52;;;;;;;;;;;12.00;99.90;;;;;;4974372;28;19906;-87
2023/03/13 06:49:22;;;;;;;;;;;12.00;99.90;;;;;;4972894;28;20036;-88
2023/03/13 06:51:55;;;;;;;;;;;11.90;99.90;;;;;;4974085;28;19964;-87
2023/03/13 06:54:24;;;;;;;;;;;11.80;99.90;;;;;;4973234;28;20362;-88
2023/03/13 06:56:50;;;;;;;;;;;11.80;99.90;;;;;;4971336;28;19957;-87
2023/03/13 06:59:18;;;;;;;;;;;11.70;99.90;;;;;;4973123;28;19981;-88
2023/03/13 07:01:50;;;;;;;;;;;12.70;99.90;;;;;;4972518;28;20389;-87
2023/03/13 07:04:16;;;;;;;;;;;11.60;99.90;;;;;;4972786;28;19922;-87
2023/03/13 07:06:47;;;;;;;;;;;11.50;99.90;;;;;;4973197;28;19910;-88
2023/03/13 07:09:18;;;;;;;;;;;11.20;99.90;;;;;;4973096;28;20048;-87
2023/03/13 07:11:49;;;;;;;;;;;10.90;99.90;;;;;;4972304;28;19906;-87
2023/03/13 07:14:17;;;;;;;;;;;12.00;99.90;;;;;;4973109;28;20009;-88
2023/03/13 07:16:46;;;;;;;;;;;11.60;99.90;;;;;;4972537;28;19910;-87
2023/03/13 07:19:17;;;;;;;;;;;12.40;99.90;;;;;;4973478;28;19910;-88
2023/03/13 07:25:19;;;;;;;;;;;11.50;99.90;;;;;;4939794;28;20000;-87
2023/03/13 07:33:59;;;;;;;;;;;10.90;99.90;;;;;;4913915;29;19976;-87
2023/03/13 07:36:35;;;;;;;;;;;;;;;;;;;;;
2023/03/13 07:52:21;;;;;;;;;;;;;;;;;;;;;
2023/03/13 07:54:53;;;;;;;;;;;11.60;99.90;;;;;;4788284;30;19918;-88
2023/03/13 07:58:09;;;;;;;;;;;;;;;;;;;;;
2023/03/13 08:03:57;;;;;;;;;;;11.60;99.90;;;;;;4770376;30;20295;-88
2023/03/13 08:06:26;;;;;;;;;;;11.10;99.90;;;;;;4779268;30;20451;-87
2023/03/13 12:41:18;;;;;;;;;;;;;;;;;;;;;
2023/03/13 12:44:15;;;;;;;;;;;;;;;;;;;;;
2023/03/13 12:58:51;;;;;;;;;;;;;;;;;;;;;
2023/03/13 13:51:30;;;;;;;;;;;14.90;99.90;;;;;;3243177;23;19928;-87
2023/03/13 15:37:35;;;;;;;;;;;15.40;99.90;;;;;;3940958;23;21074;-86
2023/03/13 15:40:09;;;;;;;;;;;15.20;99.90;;;;;;5440644;23;19922;-86
2023/03/13 15:50:29;;;;;;;;;;;15.30;99.90;;;;;;5283307;23;19929;-87
2023/03/13 15:53:28;;;;;;;;;;;15.20;99.90;;;;;;4992937;28;19929;-88
2023/03/13 16:08:33;;;;;;;;;;;15.00;99.90;;;;;;4936019;29;19938;-87
2023/03/13 16:11:31;;;;;;;;;;;14.90;99.90;;;;;;4935526;29;19914;-87
2023/03/13 16:14:02;;;;;;;;;;;14.60;99.90;;;;;;4919952;29;20376;-87
2023/03/13 16:17:05;;;;;;;;;;;14.50;99.90;;;;;;4936110;29;19907;-89
2023/03/13 16:19:36;;;;;;;;;;;14.50;99.90;;;;;;4937595;29;19906;-90
2023/03/13 16:22:35;;;;;;;;;;;14.90;99.90;;;;;;4939053;29;20453;-88
2023/03/13 16:28:44;;;;;;;;;;;14.50;99.90;;;;;;4947228;23;19965;-87
2023/03/13 16:40:40;;;;;;;;;;;13.90;99.90;;;;;;4818350;29;19938;-87
2023/03/13 17:24:48;;;;;;;;;;;13.00;99.90;;;;;;4929687;29;20039;-88
2023/03/13 17:27:16;;;;;;;;;;;13.00;99.90;;;;;;4931218;29;19911;-88
2023/03/13 17:29:44;;;;;;;;;;;12.90;99.90;;;;;;4936232;29;20295;-88
2023/03/13 17:32:13;;;;;;;;;;;13.10;99.90;;;;;;4934151;29;19978;-87
2023/03/13 17:35:17;;;;;;;;;;;;;;;;;;;;;
2023/03/13 17:37:45;;;;;;;;;;;12.00;99.90;;;;;;4888627;29;19911;-85
2023/03/13 17:45:42;;;;;;;;;;;12.40;99.90;;;;;;4895734;29;19959;-91
2023/03/13 17:51:45;;;;;;;;;;;12.60;99.90;;;;;;4968319;23;20058;-88
2023/03/13 17:57:21;;;;;;;;;;;12.50;99.90;;;;;;4964088;28;19910;-88
2023/03/13 17:59:55;;;;;;;;;;;12.10;99.90;;;;;;4966974;28;20314;-88
2023/03/13 18:08:54;;;;;;;;;;;12.80;99.90;;;;;;4915110;29;20442;-89
2023/03/13 19:37:43;;;;;;;;;;;12.30;99.90;;;;;;4881347;29;19983;-88
2023/03/13 19:40:19;;;;;;;;;;;12.40;99.90;;;;;;4891179;29;19915;-89
2023/03/13 19:42:45;;;;;;;;;;;12.40;99.90;;;;;;4867002;29;19914;-88
2023/03/13 19:45:26;;;;;;;;;;;;;;;;;;;;;
2023/03/13 19:50:45;;;;;;;;;;;13.10;99.90;;;;;;4881301;29;19914;-89
2023/03/13 19:53:16;;;;;;;;;;;12.40;99.90;;;;;;4886345;29;20010;-88
2023/03/13 19:56:17;;;;;;;;;;;12.40;99.90;;;;;;4879427;29;20376;-90
2023/03/13 20:15:17;;;;;;;;;;;12.20;99.90;;;;;;4898866;29;19923;-87
2023/03/13 20:31:34;;;;;;;;;;;;;;;;;;;;;
2023/03/13 20:34:24;;;;;;;;;;;12.00;99.90;;;;;;4944250;28;19918;-89
2023/03/13 20:36:58;;;;;;;;;;;12.00;99.90;;;;;;4995568;28;19994;-88
2023/03/13 20:40:06;;;;;;;;;;;;;;;;;;;;;
2023/03/13 20:43:07;;;;;;;;;;;;;;;;;;;;;
2023/03/13 21:16:35;;;;;;;;;;;11.90;99.90;;;;;;4935254;29;19934;-87
2023/03/13 21:37:20;;;;;;;;;;;12.10;99.90;;;;;;4983490;28;19941;-86
2023/03/13 21:39:54;;;;;;;;;;;11.50;99.90;;;;;;4974700;28;19917;-90
2023/03/13 22:12:05;;;;;;;;;;;12.10;99.90;;;;;;4991906;28;20295;-87
